createdAt,value
2023-05-10T00:00:32.579Z,72.1961
2023-05-10T00:01:34.268Z,72.0447
2023-05-10T00:02:35.854Z,71.1352
2023-05-10T00:03:37.501Z,70.7693
2023-05-10T00:04:39.121Z,70.9466
2023-05-10T00:05:40.789Z,71.4613
2023-05-10T00:06:42.377Z,72.0966
2023-05-10T00:07:44.033Z,72.6164
2023-05-10T00:08:45.655Z,71.6436
2023-05-10T00:09:47.305Z,70.5452
2023-05-10T00:10:48.989Z,70.9725
2023-05-10T00:11:50.558Z,71.6033
2023-05-10T00:12:52.239Z,71.7645
2023-05-10T00:13:53.815Z,71.6341
2023-05-10T00:14:55.488Z,71.8060
2023-05-10T00:15:57.156Z,71.7202
2023-05-10T00:16:58.824Z,70.4743
2023-05-10T00:18:00.500Z,70.7251
2023-05-10T00:19:01.990Z,71.2694
2023-05-10T00:20:03.740Z,71.4945
2023-05-10T00:21:05.385Z,71.3157
2023-05-10T00:22:07.009Z,71.4744
2023-05-10T00:23:08.652Z,71.5057
2023-05-10T00:24:10.349Z,70.8488
2023-05-10T00:25:11.977Z,69.7565
2023-05-10T00:26:13.623Z,70.0632
2023-05-10T00:27:15.239Z,70.8471
2023-05-10T00:28:16.862Z,71.3530
2023-05-10T00:29:18.464Z,71.4761
2023-05-10T00:30:20.097Z,71.8277
2023-05-10T00:31:21.744Z,71.7984
2023-05-10T00:32:23.503Z,71.1762
2023-05-10T00:33:25.091Z,70.0502
2023-05-10T00:34:26.697Z,70.1983
2023-05-10T00:35:28.349Z,70.5862
2023-05-10T00:36:29.978Z,70.9817
2023-05-10T00:37:31.664Z,70.9393
2023-05-10T00:38:33.207Z,70.9326
2023-05-10T00:39:34.881Z,71.1278
2023-05-10T00:40:36.595Z,71.2824
2023-05-10T00:41:38.179Z,70.8118
2023-05-10T00:42:39.781Z,70.0087
2023-05-10T00:43:41.458Z,70.1581
2023-05-10T00:44:43.045Z,70.7105
2023-05-10T00:45:44.749Z,70.9569
2023-05-10T00:46:46.348Z,70.5286
2023-05-10T00:47:48.079Z,70.5510
2023-05-10T00:48:49.674Z,70.8853
2023-05-10T00:49:51.249Z,70.8390
2023-05-10T00:50:52.969Z,69.8204
2023-05-10T00:51:55.180Z,69.3060
2023-05-10T00:52:57.127Z,69.9739
2023-05-10T00:53:57.839Z,70.5150
2023-05-10T00:54:59.543Z,70.5507
2023-05-10T00:56:01.161Z,70.4285
2023-05-10T00:57:02.831Z,70.7473
2023-05-10T00:58:04.388Z,70.8070
2023-05-10T00:59:06.018Z,70.6357
2023-05-10T01:00:07.745Z,69.5706
2023-05-10T01:01:09.313Z,69.2571
2023-05-10T01:02:12.752Z,69.8867
2023-05-10T01:03:12.736Z,70.0974
2023-05-10T01:04:14.241Z,70.1345
2023-05-10T01:05:16.048Z,69.9644
2023-05-10T01:06:17.460Z,70.2223
2023-05-10T01:07:19.224Z,70.2270
2023-05-10T01:08:20.755Z,69.9066
2023-05-10T01:09:22.435Z,69.3765
2023-05-10T01:10:24.072Z,68.9130
2023-05-10T01:11:25.702Z,69.3525
2023-05-10T01:12:27.372Z,70.0118
2023-05-10T01:13:29.104Z,70.4115
2023-05-10T01:14:30.622Z,70.3582
2023-05-10T01:15:32.309Z,70.0332
2023-05-10T01:16:33.999Z,69.3507
2023-05-10T01:17:35.803Z,69.1871
2023-05-10T01:18:37.138Z,68.8063
2023-05-10T01:19:38.852Z,69.0521
2023-05-10T01:20:40.469Z,69.7409
2023-05-10T01:21:42.144Z,69.8654
2023-05-10T01:22:43.793Z,69.9131
2023-05-10T01:23:45.406Z,70.2233
2023-05-10T01:24:47.037Z,69.8684
2023-05-10T01:25:48.680Z,69.0160
2023-05-10T01:26:50.317Z,69.1324
2023-05-10T01:27:52.212Z,68.4843
2023-05-10T01:28:53.646Z,68.5332
2023-05-10T01:30:05.907Z,69.4139
2023-05-10T01:30:56.891Z,69.7396
2023-05-10T01:31:58.541Z,69.7249
2023-05-10T01:33:00.250Z,69.2719
2023-05-10T01:34:01.905Z,68.9793
2023-05-10T01:35:03.514Z,68.5373
2023-05-10T01:36:05.247Z,68.7741
2023-05-10T01:37:06.828Z,68.3657
2023-05-10T01:38:08.439Z,69.0078
2023-05-10T01:39:10.057Z,69.2526
2023-05-10T01:40:11.653Z,69.7891
2023-05-10T01:41:13.339Z,69.5568
2023-05-10T01:42:14.948Z,68.8845
2023-05-10T01:43:16.660Z,68.4292
2023-05-10T01:44:18.274Z,68.4798
2023-05-10T01:45:19.905Z,68.3871
2023-05-10T01:46:21.580Z,69.0663
2023-05-10T01:47:23.194Z,68.9466
2023-05-10T01:48:24.871Z,69.2528
2023-05-10T01:49:26.556Z,69.4148
2023-05-10T01:50:28.100Z,69.6945
2023-05-10T01:51:29.750Z,69.1258
2023-05-10T01:52:31.445Z,68.5243
2023-05-10T01:53:33.244Z,68.2808
2023-05-10T01:54:34.653Z,68.5521
2023-05-10T01:55:36.340Z,68.7330
2023-05-10T01:56:37.884Z,68.9232
2023-05-10T01:57:39.524Z,69.0941
2023-05-10T01:58:41.191Z,69.4025
2023-05-10T01:59:42.816Z,68.7600
2023-05-10T02:00:44.435Z,68.1225
2023-05-10T02:01:46.128Z,67.8788
2023-05-10T02:02:47.777Z,68.4541
2023-05-10T02:03:49.448Z,67.8731
2023-05-10T02:04:52.197Z,68.4265
2023-05-10T02:05:53.708Z,69.1260
2023-05-10T02:06:55.328Z,69.3383
2023-05-10T02:07:56.096Z,69.0193
2023-05-10T02:08:58.344Z,68.3557
2023-05-10T02:09:59.484Z,67.8201
2023-05-10T02:11:01.990Z,67.6713
2023-05-10T02:12:03.704Z,67.6439
2023-05-10T02:13:04.261Z,68.4067
2023-05-10T02:14:06.230Z,68.5920
2023-05-10T02:15:07.631Z,69.1318
2023-05-10T02:16:09.261Z,69.1533
2023-05-10T02:17:10.806Z,68.8631
2023-05-10T02:18:12.507Z,68.5959
2023-05-10T02:19:14.141Z,68.1764
2023-05-10T02:20:16.460Z,67.8506
2023-05-10T02:21:17.419Z,67.8718
2023-05-10T02:22:19.081Z,68.6993
2023-05-10T02:23:20.679Z,68.7610
2023-05-10T02:24:22.360Z,68.7395
2023-05-10T02:25:24.043Z,68.9034
2023-05-10T02:26:25.626Z,68.3788
2023-05-10T02:27:27.257Z,67.8224
2023-05-10T02:28:28.945Z,67.5776
2023-05-10T02:29:30.704Z,67.5985
2023-05-10T02:30:32.268Z,68.2503
2023-05-10T02:31:34.015Z,68.4828
2023-05-10T02:32:35.629Z,69.0217
2023-05-10T02:33:37.153Z,69.1752
2023-05-10T02:34:38.907Z,68.8300
2023-05-10T02:35:40.465Z,68.5881
2023-05-10T02:36:42.168Z,68.1104
2023-05-10T02:37:43.806Z,68.1618
2023-05-10T02:38:45.365Z,68.1821
2023-05-10T02:39:47.116Z,68.8320
2023-05-10T02:40:48.702Z,69.0392
2023-05-10T02:41:50.285Z,69.4669
2023-05-10T02:42:51.957Z,69.6270
2023-05-10T02:43:53.632Z,69.2938
2023-05-10T02:44:55.226Z,68.8766
2023-05-10T02:45:57.274Z,68.5664
2023-05-10T02:46:58.478Z,68.2942
2023-05-10T02:48:00.246Z,68.1874
2023-05-10T02:49:01.795Z,68.2109
2023-05-10T02:50:03.426Z,69.0089
2023-05-10T02:51:05.088Z,68.9353
2023-05-10T02:52:06.748Z,69.3142
2023-05-10T02:53:08.333Z,70.6002
2023-05-10T02:54:10.080Z,71.6329
2023-05-10T02:55:11.645Z,71.2774
2023-05-10T02:56:13.355Z,70.2561
2023-05-10T02:57:15.009Z,68.9946
2023-05-10T02:58:16.609Z,68.3480
2023-05-10T02:59:18.213Z,67.6466
2023-05-10T03:00:19.929Z,66.8668
2023-05-10T03:01:21.517Z,66.3049
2023-05-10T03:02:23.190Z,65.7604
2023-05-10T03:03:24.775Z,65.3614
2023-05-10T03:04:26.472Z,64.8549
2023-05-10T03:05:28.100Z,64.8540
2023-05-10T03:06:29.752Z,64.7675
2023-05-10T03:07:31.356Z,64.6407
2023-05-10T03:08:33.041Z,64.5465
2023-05-10T03:09:34.703Z,64.6370
2023-05-10T03:10:36.351Z,64.2914
2023-05-10T03:11:38.090Z,64.4031
2023-05-10T03:12:39.582Z,64.3615
2023-05-10T03:13:41.282Z,64.2214
2023-05-10T03:14:42.858Z,64.2773
2023-05-10T03:15:44.608Z,64.0422
2023-05-10T03:16:46.337Z,63.6856
2023-05-10T03:17:47.795Z,63.8206
2023-05-10T03:18:49.453Z,63.7433
2023-05-10T03:19:51.143Z,63.6943
2023-05-10T03:20:52.800Z,63.8807
2023-05-10T03:21:54.565Z,63.9541
2023-05-10T03:22:56.025Z,63.5902
2023-05-10T03:23:57.689Z,63.6448
2023-05-10T03:24:59.342Z,63.9952
2023-05-10T03:26:01.024Z,64.0315
2023-05-10T03:27:02.629Z,63.8060
2023-05-10T03:28:04.249Z,63.6766
2023-05-10T03:29:05.897Z,63.7429
2023-05-10T03:30:07.488Z,63.6459
2023-05-10T03:31:09.204Z,63.4603
2023-05-10T03:32:10.817Z,63.4296
2023-05-10T03:33:12.422Z,63.5338
2023-05-10T03:34:14.108Z,63.4434
2023-05-10T03:35:15.823Z,63.3168
2023-05-10T03:36:17.487Z,63.2606
2023-05-10T03:37:19.039Z,63.4447
2023-05-10T03:38:20.725Z,63.4512
2023-05-10T03:39:22.378Z,63.5343
2023-05-10T03:40:23.937Z,63.9497
2023-05-10T03:41:25.572Z,64.0752
2023-05-10T03:42:27.331Z,63.7089
2023-05-10T03:43:28.848Z,63.6514
2023-05-10T03:44:30.513Z,63.4133
2023-05-10T03:45:32.218Z,63.2707
2023-05-10T03:46:33.834Z,63.4328
2023-05-10T03:47:35.479Z,64.0191
2023-05-10T03:48:37.096Z,64.2328
2023-05-10T03:49:38.709Z,64.2567
2023-05-10T03:50:40.389Z,64.5078
2023-05-10T03:51:42.110Z,64.5215
2023-05-10T03:52:43.684Z,65.1912
2023-05-10T03:53:45.277Z,65.9871
2023-05-10T03:54:46.932Z,65.5235
2023-05-10T03:55:48.597Z,64.9741
2023-05-10T03:56:50.256Z,64.2932
2023-05-10T03:57:51.918Z,64.1702
2023-05-10T03:58:53.476Z,64.0677
2023-05-10T03:59:55.049Z,64.0647
2023-05-10T04:00:56.700Z,64.0201
2023-05-10T04:01:58.368Z,64.1175
2023-05-10T04:03:00.121Z,64.1345
2023-05-10T04:04:01.624Z,63.9839
2023-05-10T04:05:03.285Z,63.9571
2023-05-10T04:06:04.939Z,64.0352
2023-05-10T04:07:06.531Z,63.7152
2023-05-10T04:08:08.212Z,63.9112
2023-05-10T04:09:09.819Z,63.7828
2023-05-10T04:10:11.499Z,64.1453
2023-05-10T04:11:15.724Z,64.3380
2023-05-10T04:12:14.747Z,64.5008
2023-05-10T04:13:16.552Z,64.1022
2023-05-10T04:14:18.043Z,64.1806
2023-05-10T04:15:19.671Z,63.7683
2023-05-10T04:16:21.323Z,64.0792
2023-05-10T04:17:23.075Z,64.2067
2023-05-10T04:18:24.656Z,64.8469
2023-05-10T04:19:27.273Z,64.5635
2023-05-10T04:20:27.932Z,64.1453
2023-05-10T04:21:29.568Z,64.0163
2023-05-10T04:22:31.175Z,63.8207
2023-05-10T04:23:32.930Z,63.9866
2023-05-10T04:24:34.580Z,63.9501
2023-05-10T04:25:37.256Z,63.7806
2023-05-10T04:26:37.830Z,63.6951
2023-05-10T04:27:39.429Z,63.6894
2023-05-10T04:28:41.227Z,63.6171
2023-05-10T04:29:42.794Z,63.3788
2023-05-10T04:30:44.420Z,63.2920
2023-05-10T04:31:46.066Z,63.4522
2023-05-10T04:32:48.721Z,63.4384
2023-05-10T04:33:49.347Z,63.5394
2023-05-10T04:34:50.972Z,63.3665
2023-05-10T04:35:52.597Z,63.4065
2023-05-10T04:36:54.295Z,63.3756
2023-05-10T04:37:55.833Z,63.3871
2023-05-10T04:38:57.606Z,63.2837
2023-05-10T04:39:59.160Z,63.3714
2023-05-10T04:41:00.797Z,63.3747
2023-05-10T04:42:02.533Z,63.4191
2023-05-10T04:43:04.209Z,64.0709
2023-05-10T04:44:06.003Z,64.0536
2023-05-10T04:45:07.520Z,63.8644
2023-05-10T04:46:09.168Z,63.4700
2023-05-10T04:47:12.676Z,63.4471
2023-05-10T04:48:12.474Z,63.3209
2023-05-10T04:49:14.101Z,63.3182
2023-05-10T04:50:15.969Z,63.3013
2023-05-10T04:51:17.473Z,63.1922
2023-05-10T04:52:18.959Z,62.8999
2023-05-10T04:53:20.684Z,62.5010
2023-05-10T04:54:23.040Z,61.4836
2023-05-10T04:55:23.989Z,60.3465
2023-05-10T04:56:25.574Z,59.9411
2023-05-10T04:57:27.234Z,60.4175
2023-05-10T04:58:28.830Z,60.0948
2023-05-10T04:59:30.938Z,59.4139
2023-05-10T05:00:32.138Z,58.2026
2023-05-10T05:01:33.955Z,56.3959
2023-05-10T05:02:35.483Z,55.6764
2023-05-10T05:03:38.076Z,56.1679
2023-05-10T05:04:38.632Z,56.2939
2023-05-10T05:05:40.349Z,55.6597
2023-05-10T05:06:42.912Z,54.8731
2023-05-10T05:07:43.568Z,54.2475
2023-05-10T05:08:45.280Z,54.2522
2023-05-10T05:09:46.832Z,54.1451
2023-05-10T05:10:48.614Z,53.5520
2023-05-10T05:11:50.173Z,53.3211
2023-05-10T05:12:51.925Z,53.1068
2023-05-10T05:13:53.518Z,53.0827
2023-05-10T05:14:55.081Z,54.0290
2023-05-10T05:15:57.009Z,53.6203
2023-05-10T05:16:58.422Z,52.8997
2023-05-10T05:18:00.110Z,52.5494
2023-05-10T05:19:01.686Z,52.2845
2023-05-10T05:20:03.336Z,52.7745
2023-05-10T05:21:04.954Z,53.1353
2023-05-10T05:22:06.641Z,52.6885
2023-05-10T05:23:08.257Z,52.0820
2023-05-10T05:24:09.906Z,52.0621
2023-05-10T05:25:11.532Z,52.3552
2023-05-10T05:26:13.214Z,52.2290
2023-05-10T05:27:14.849Z,53.3296
2023-05-10T05:28:16.402Z,52.8520
2023-05-10T05:29:18.055Z,52.3203
2023-05-10T05:30:19.804Z,51.8399
2023-05-10T05:31:22.413Z,51.7563
2023-05-10T05:32:22.959Z,51.9074
2023-05-10T05:33:24.611Z,52.1624
2023-05-10T05:34:26.475Z,52.5502
2023-05-10T05:35:28.927Z,52.2227
2023-05-10T05:36:29.543Z,51.5256
2023-05-10T05:37:31.482Z,52.0714
2023-05-10T05:38:33.817Z,53.2210
2023-05-10T05:39:35.331Z,53.0567
2023-05-10T05:40:36.164Z,52.2537
2023-05-10T05:41:38.761Z,51.4499
2023-05-10T05:42:40.491Z,51.7003
2023-05-10T05:43:40.957Z,52.4373
2023-05-10T05:44:42.941Z,53.0656
2023-05-10T05:45:45.381Z,52.7207
2023-05-10T05:46:45.972Z,52.2185
2023-05-10T05:47:48.585Z,51.6290
2023-05-10T05:48:49.297Z,51.4380
2023-05-10T05:49:50.925Z,52.0079
2023-05-10T05:50:52.527Z,52.7511
2023-05-10T05:51:54.462Z,52.1185
2023-05-10T05:52:56.793Z,51.6889
2023-05-10T05:53:57.510Z,51.4407
2023-05-10T05:54:59.091Z,51.0424
2023-05-10T05:56:00.882Z,52.6963
2023-05-10T05:57:02.460Z,53.1359
2023-05-10T05:58:04.062Z,52.1516
2023-05-10T05:59:05.690Z,51.3218
2023-05-10T06:00:07.409Z,51.0018
2023-05-10T06:01:08.972Z,51.5213
2023-05-10T06:02:10.746Z,52.9492
2023-05-10T06:03:13.360Z,52.8111
2023-05-10T06:04:13.974Z,52.4644
2023-05-10T06:05:16.612Z,51.1723
2023-05-10T06:06:17.281Z,51.3860
2023-05-10T06:07:19.857Z,52.6832
2023-05-10T06:08:20.529Z,53.3489
2023-05-10T06:09:22.189Z,52.0806
2023-05-10T06:10:23.802Z,51.7671
2023-05-10T06:11:26.409Z,51.2089
2023-05-10T06:12:27.358Z,52.6632
2023-05-10T06:13:29.936Z,53.1243
2023-05-10T06:14:30.298Z,52.8024
2023-05-10T06:15:32.048Z,51.7763
2023-05-10T06:16:34.713Z,51.1060
2023-05-10T06:17:35.271Z,51.5804
2023-05-10T06:18:36.939Z,51.6426
2023-05-10T06:19:38.526Z,52.5278
2023-05-10T06:20:40.241Z,52.0390
2023-05-10T06:21:41.862Z,52.1005
2023-05-10T06:22:43.620Z,51.3831
2023-05-10T06:23:45.133Z,52.4619
2023-05-10T06:24:46.756Z,53.5587
2023-05-10T06:25:48.451Z,53.1786
2023-05-10T06:26:50.136Z,52.1682
2023-05-10T06:27:53.651Z,51.4061
2023-05-10T06:28:53.403Z,51.3045
2023-05-10T06:30:02.177Z,52.1404
2023-05-10T06:30:56.631Z,52.4785
2023-05-10T06:31:58.458Z,52.0172
2023-05-10T06:32:59.998Z,51.4248
2023-05-10T06:34:01.542Z,51.0406
2023-05-10T06:35:03.200Z,50.9807
2023-05-10T06:36:04.887Z,52.0941
2023-05-10T06:37:06.490Z,52.5677
2023-05-10T06:38:08.260Z,52.1436
2023-05-10T06:39:09.769Z,50.9448
2023-05-10T06:40:11.497Z,51.1022
2023-05-10T06:41:13.114Z,51.8128
2023-05-10T06:42:14.828Z,52.2665
2023-05-10T06:43:17.354Z,52.1513
2023-05-10T06:44:18.059Z,51.6027
2023-05-10T06:45:19.808Z,50.2243
2023-05-10T06:46:21.284Z,51.4405
2023-05-10T06:47:22.995Z,52.9927
2023-05-10T06:48:24.637Z,52.9303
2023-05-10T06:49:26.226Z,52.7683
2023-05-10T06:50:27.790Z,51.5112
2023-05-10T06:51:29.457Z,51.4855
2023-05-10T06:52:31.107Z,51.7786
2023-05-10T06:53:32.770Z,52.5819
2023-05-10T06:54:34.385Z,52.9668
2023-05-10T06:55:36.084Z,52.4873
2023-05-10T06:56:37.664Z,50.7720
2023-05-10T06:57:39.442Z,51.1984
2023-05-10T06:58:42.003Z,51.3329
2023-05-10T06:59:42.665Z,52.3203
2023-05-10T07:00:44.330Z,52.1272
2023-05-10T07:01:45.945Z,51.4586
2023-05-10T07:02:47.569Z,50.6108
2023-05-10T07:03:49.398Z,50.6179
2023-05-10T07:04:50.901Z,51.4078
2023-05-10T07:05:52.455Z,52.6940
2023-05-10T07:06:54.087Z,52.2299
2023-05-10T07:07:55.761Z,50.6151
2023-05-10T07:08:58.385Z,50.0357
2023-05-10T07:09:59.058Z,49.6419
2023-05-10T07:11:00.656Z,50.8697
2023-05-10T07:12:02.350Z,51.7483
2023-05-10T07:13:04.009Z,51.1872
2023-05-10T07:14:05.657Z,49.6857
2023-05-10T07:15:07.286Z,49.5020
2023-05-10T07:16:08.963Z,50.3207
2023-05-10T07:17:10.586Z,52.5361
2023-05-10T07:18:12.210Z,52.4436
2023-05-10T07:19:13.788Z,51.0293
2023-05-10T07:20:15.564Z,49.2011
2023-05-10T07:21:17.106Z,49.4551
2023-05-10T07:22:18.746Z,51.4378
2023-05-10T07:23:20.402Z,53.9516
2023-05-10T07:24:22.396Z,52.6953
2023-05-10T07:25:23.647Z,50.6720
2023-05-10T07:26:25.882Z,49.5560
2023-05-10T07:27:27.796Z,51.1886
2023-05-10T07:28:28.691Z,52.8727
2023-05-10T07:29:30.303Z,52.6428
2023-05-10T07:30:32.021Z,51.3431
2023-05-10T07:31:33.495Z,48.8907
2023-05-10T07:32:35.300Z,49.8626
2023-05-10T07:33:36.809Z,51.5109
2023-05-10T07:34:38.496Z,52.4496
2023-05-10T07:35:40.111Z,51.5167
2023-05-10T07:36:41.691Z,48.9619
2023-05-10T07:37:43.281Z,48.8253
2023-05-10T07:38:45.003Z,50.6898
2023-05-10T07:39:48.420Z,52.0337
2023-05-10T07:40:48.823Z,51.9667
2023-05-10T07:41:49.917Z,49.8734
2023-05-10T07:42:51.517Z,48.2652
2023-05-10T07:43:53.731Z,50.3984
2023-05-10T07:44:54.885Z,52.6741
2023-05-10T07:45:56.544Z,51.9948
2023-05-10T07:46:58.769Z,49.2101
2023-05-10T07:47:59.804Z,49.0744
2023-05-10T07:49:01.405Z,50.9215
2023-05-10T07:50:03.074Z,52.7205
2023-05-10T07:51:04.792Z,52.7961
2023-05-10T07:52:06.405Z,50.0650
2023-05-10T07:53:08.002Z,48.2908
2023-05-10T07:54:09.641Z,49.1832
2023-05-10T07:55:11.338Z,51.7808
2023-05-10T07:56:12.953Z,52.4029
2023-05-10T07:57:14.596Z,51.0312
2023-05-10T07:58:16.236Z,49.0423
2023-05-10T07:59:17.932Z,49.3086
2023-05-10T08:00:19.828Z,51.6504
2023-05-10T08:01:21.619Z,54.1175
2023-05-10T08:02:22.911Z,55.3989
2023-05-10T08:03:24.647Z,54.8881
2023-05-10T08:04:26.269Z,54.2151
2023-05-10T08:05:27.936Z,54.5602
2023-05-10T08:06:29.568Z,56.8153
2023-05-10T08:07:31.233Z,57.2105
2023-05-10T08:08:33.775Z,57.1686
2023-05-10T08:09:34.503Z,54.2721
2023-05-10T08:10:36.194Z,54.8234
2023-05-10T08:11:37.886Z,56.5758
2023-05-10T08:12:39.414Z,57.8666
2023-05-10T08:13:41.059Z,58.4010
2023-05-10T08:14:42.647Z,57.2858
2023-05-10T08:15:44.453Z,55.0131
2023-05-10T08:16:45.986Z,55.1415
2023-05-10T08:17:48.680Z,56.9802
2023-05-10T08:18:49.204Z,58.7770
2023-05-10T08:19:50.892Z,59.8927
2023-05-10T08:20:53.536Z,58.1623
2023-05-10T08:21:54.194Z,55.8349
2023-05-10T08:22:55.804Z,56.6846
2023-05-10T08:23:57.556Z,58.5250
2023-05-10T08:24:59.073Z,59.8653
2023-05-10T08:26:01.017Z,61.4714
2023-05-10T08:27:02.498Z,57.9436
2023-05-10T08:28:04.147Z,56.6611
2023-05-10T08:29:05.730Z,57.2598
2023-05-10T08:30:07.424Z,59.4818
2023-05-10T08:31:09.147Z,60.7347
2023-05-10T08:32:10.720Z,61.3523
2023-05-10T08:33:12.426Z,58.2885
2023-05-10T08:34:14.039Z,56.7914
2023-05-10T08:35:15.852Z,57.3772
2023-05-10T08:36:17.362Z,59.4286
2023-05-10T08:37:19.012Z,60.4716
2023-05-10T08:38:21.533Z,60.5296
2023-05-10T08:39:29.847Z,57.7789
2023-05-10T08:40:23.878Z,56.4813
2023-05-10T08:41:25.511Z,57.0508
2023-05-10T08:42:27.187Z,59.3342
2023-05-10T08:43:29.765Z,61.1953
2023-05-10T08:44:30.431Z,61.0526
2023-05-10T08:45:32.087Z,58.7698
2023-05-10T08:46:33.770Z,57.2669
2023-05-10T08:47:35.365Z,57.5699
2023-05-10T08:48:37.025Z,59.7387
2023-05-10T08:49:38.654Z,61.4589
2023-05-10T08:50:40.592Z,61.1036
2023-05-10T08:51:43.823Z,59.1455
2023-05-10T08:52:43.565Z,58.1317
2023-05-10T08:53:45.492Z,58.5060
2023-05-10T08:54:47.695Z,60.5784
2023-05-10T08:55:48.386Z,62.8619
2023-05-10T08:56:50.192Z,62.9750
2023-05-10T08:57:51.642Z,60.3121
2023-05-10T08:58:53.444Z,58.5898
2023-05-10T08:59:55.002Z,59.0240
2023-05-10T09:00:56.801Z,61.2975
2023-05-10T09:01:58.374Z,62.2088
2023-05-10T09:03:00.038Z,63.4508
2023-05-10T09:04:02.045Z,60.5132
2023-05-10T09:05:03.413Z,57.9178
2023-05-10T09:06:05.063Z,58.0299
2023-05-10T09:07:06.623Z,59.9264
2023-05-10T09:08:08.324Z,60.8524
2023-05-10T09:09:09.852Z,62.6031
2023-05-10T09:10:11.541Z,59.2146
2023-05-10T09:11:13.192Z,57.5017
2023-05-10T09:12:14.810Z,57.0356
2023-05-10T09:13:16.527Z,59.1287
2023-05-10T09:14:18.122Z,60.3649
2023-05-10T09:15:19.831Z,60.6399
2023-05-10T09:16:22.460Z,57.6459
2023-05-10T09:17:23.152Z,56.3844
2023-05-10T09:18:26.018Z,56.6416
2023-05-10T09:19:27.400Z,59.1822
2023-05-10T09:20:27.884Z,60.8497
2023-05-10T09:21:29.505Z,61.9820
2023-05-10T09:22:31.282Z,58.0810
2023-05-10T09:23:32.764Z,56.7916
2023-05-10T09:24:35.416Z,57.0464
2023-05-10T09:25:36.094Z,59.5459
2023-05-10T09:26:37.747Z,59.9729
2023-05-10T09:27:39.345Z,62.4876
2023-05-10T09:28:41.088Z,58.5945
2023-05-10T09:29:42.624Z,57.4277
2023-05-10T09:30:44.340Z,57.8433
2023-05-10T09:31:45.928Z,59.9383
2023-05-10T09:32:47.643Z,60.3241
2023-05-10T09:33:49.214Z,62.1616
2023-05-10T09:34:50.847Z,57.6816
2023-05-10T09:35:52.586Z,55.8209
2023-05-10T09:36:54.121Z,57.1436
2023-05-10T09:37:55.861Z,59.0491
2023-05-10T09:38:57.535Z,60.7452
2023-05-10T09:39:59.076Z,61.9032
2023-05-10T09:41:00.817Z,57.3435
2023-05-10T09:42:02.362Z,56.8248
2023-05-10T09:43:04.037Z,57.5104
2023-05-10T09:44:05.686Z,59.4483
2023-05-10T09:45:07.320Z,59.3915
2023-05-10T09:46:09.003Z,60.4959
2023-05-10T09:47:10.564Z,56.1605
2023-05-10T09:48:12.462Z,55.5647
2023-05-10T09:49:13.853Z,56.2519
2023-05-10T09:50:15.563Z,58.4554
2023-05-10T09:51:17.235Z,58.9870
2023-05-10T09:52:18.834Z,59.9887
2023-05-10T09:53:20.468Z,56.3419
2023-05-10T09:54:22.110Z,55.6070
2023-05-10T09:55:23.765Z,56.8882
2023-05-10T09:56:25.431Z,58.4865
2023-05-10T09:57:27.038Z,58.7461
2023-05-10T09:58:28.733Z,60.2006
2023-05-10T09:59:30.325Z,56.1317
2023-05-10T10:00:31.975Z,54.9591
2023-05-10T10:01:33.705Z,55.9647
2023-05-10T10:02:35.283Z,58.7888
2023-05-10T10:03:36.936Z,59.6251
2023-05-10T10:04:38.545Z,59.4986
2023-05-10T10:05:40.274Z,55.4479
2023-05-10T10:06:41.831Z,55.1996
2023-05-10T10:07:43.476Z,56.5754
2023-05-10T10:08:45.192Z,59.6184
2023-05-10T10:09:46.827Z,59.5254
2023-05-10T10:10:48.437Z,59.0781
2023-05-10T10:11:50.064Z,55.7427
2023-05-10T10:12:51.666Z,55.6466
2023-05-10T10:13:53.362Z,57.5687
2023-05-10T10:14:54.971Z,59.9965
2023-05-10T10:15:56.627Z,58.9363
2023-05-10T10:17:06.787Z,58.2314
2023-05-10T10:18:00.044Z,55.5849
2023-05-10T10:19:01.700Z,55.1318
2023-05-10T10:20:03.266Z,57.6007
2023-05-10T10:21:04.804Z,58.3080
2023-05-10T10:22:06.583Z,58.0417
2023-05-10T10:23:08.134Z,57.8588
2023-05-10T10:24:09.857Z,53.2863
2023-05-10T10:25:11.381Z,51.7473
2023-05-10T10:26:13.106Z,51.8057
2023-05-10T10:27:14.692Z,52.4814
2023-05-10T10:28:16.271Z,51.7153
2023-05-10T10:29:17.991Z,49.1426
2023-05-10T10:30:19.731Z,48.9448
2023-05-10T10:31:21.323Z,48.2018
2023-05-10T10:32:23.022Z,49.4168
2023-05-10T10:33:28.739Z,49.7276
2023-05-10T10:34:26.234Z,48.5928
2023-05-10T10:35:27.890Z,47.7510
2023-05-10T10:36:29.554Z,47.9433
2023-05-10T10:37:31.096Z,47.0173
2023-05-10T10:38:32.773Z,47.7833
2023-05-10T10:39:34.467Z,48.0687
2023-05-10T10:40:36.083Z,47.3587
2023-05-10T10:41:37.717Z,48.3548
2023-05-10T10:42:39.358Z,48.8068
2023-05-10T10:43:40.997Z,48.8680
2023-05-10T10:44:42.614Z,50.7701
2023-05-10T10:45:44.238Z,52.7367
2023-05-10T10:46:45.946Z,51.2022
2023-05-10T10:47:47.642Z,50.4473
2023-05-10T10:48:49.139Z,50.6839
2023-05-10T10:49:51.547Z,51.4495
2023-05-10T10:50:52.611Z,52.8419
2023-05-10T10:51:54.079Z,53.8416
2023-05-10T10:52:55.830Z,51.8686
2023-05-10T10:53:57.402Z,51.2975
2023-05-10T10:54:59.175Z,51.4202
2023-05-10T10:56:00.744Z,52.3238
2023-05-10T10:57:02.348Z,53.9867
2023-05-10T10:58:03.980Z,53.4718
2023-05-10T10:59:05.653Z,51.2701
2023-05-10T11:00:07.295Z,51.6236
2023-05-10T11:01:08.939Z,51.3507
2023-05-10T11:02:10.587Z,52.7907
2023-05-10T11:03:12.246Z,55.0394
2023-05-10T11:04:14.052Z,52.7265
2023-05-10T11:05:15.602Z,50.9379
2023-05-10T11:06:17.152Z,50.5585
2023-05-10T11:07:18.820Z,50.6507
2023-05-10T11:08:20.400Z,52.0680
2023-05-10T11:09:21.982Z,53.8926
2023-05-10T11:10:24.038Z,52.0736
2023-05-10T11:11:25.286Z,50.3594
2023-05-10T11:12:27.105Z,50.6750
2023-05-10T11:13:28.567Z,49.9837
2023-05-10T11:14:30.363Z,51.4446
2023-05-10T11:15:31.988Z,53.6574
2023-05-10T11:16:33.553Z,50.6789
2023-05-10T11:17:35.231Z,50.0464
2023-05-10T11:18:36.916Z,50.5470
2023-05-10T11:19:38.448Z,50.6979
2023-05-10T11:20:40.203Z,51.5741
2023-05-10T11:21:41.718Z,53.5200
2023-05-10T11:22:43.471Z,51.1912
2023-05-10T11:23:45.066Z,50.4186
2023-05-10T11:24:47.860Z,50.0532
2023-05-10T11:25:48.382Z,51.1109
2023-05-10T11:26:50.000Z,53.6434
2023-05-10T11:27:51.603Z,55.1588
2023-05-10T11:28:53.280Z,52.4658
2023-05-10T11:29:54.881Z,51.3792
2023-05-10T11:30:56.625Z,51.5595
2023-05-10T11:31:58.183Z,52.0901
2023-05-10T11:32:59.816Z,55.2157
2023-05-10T11:34:01.464Z,56.1500
2023-05-10T11:35:03.090Z,54.6793
2023-05-10T11:36:04.810Z,52.7265
2023-05-10T11:37:06.354Z,52.7220
2023-05-10T11:38:08.031Z,53.8045
2023-05-10T11:39:09.667Z,56.8173
2023-05-10T11:40:11.386Z,56.1205
2023-05-10T11:41:12.966Z,55.1580
2023-05-10T11:42:15.362Z,52.6301
2023-05-10T11:43:16.209Z,52.4848
2023-05-10T11:44:17.923Z,53.0213
2023-05-10T11:45:19.549Z,56.3790
2023-05-10T11:46:21.307Z,56.6116
2023-05-10T11:47:22.918Z,55.5770
2023-05-10T11:48:24.490Z,52.9344
2023-05-10T11:49:26.159Z,51.9101
2023-05-10T11:50:27.724Z,51.6260
2023-05-10T11:51:29.489Z,53.5767
2023-05-10T11:52:31.086Z,52.0160
2023-05-10T11:53:32.677Z,48.0383
2023-05-10T11:54:34.433Z,48.2016
2023-05-10T11:55:35.939Z,47.7255
2023-05-10T11:56:37.666Z,46.9966
2023-05-10T11:57:39.564Z,47.3759
2023-05-10T11:58:40.930Z,46.5573
2023-05-10T11:59:43.331Z,45.6609
2023-05-10T12:00:44.173Z,46.2527
2023-05-10T12:01:45.903Z,44.9864
2023-05-10T12:02:47.585Z,45.5625
2023-05-10T12:03:49.226Z,46.0528
2023-05-10T12:04:50.873Z,44.2260
2023-05-10T12:05:52.404Z,45.1931
2023-05-10T12:06:54.116Z,47.0856
2023-05-10T12:07:55.736Z,47.0605
2023-05-10T12:08:57.310Z,48.6449
2023-05-10T12:09:59.054Z,48.4136
2023-05-10T12:11:00.609Z,47.1547
2023-05-10T12:12:02.295Z,48.6833
2023-05-10T12:13:03.899Z,49.0953
2023-05-10T12:14:05.638Z,49.1926
2023-05-10T12:15:07.213Z,51.8950
2023-05-10T12:16:08.805Z,51.3828
2023-05-10T12:17:10.470Z,48.9788
2023-05-10T12:18:12.192Z,50.8044
2023-05-10T12:19:13.768Z,51.1391
2023-05-10T12:20:15.612Z,52.5444
2023-05-10T12:21:17.026Z,55.0912
2023-05-10T12:22:18.717Z,51.1292
2023-05-10T12:23:20.315Z,49.6485
2023-05-10T12:24:21.943Z,50.4344
2023-05-10T12:25:23.629Z,50.8979